Terminal Aerodrome Forecast
Issued by NWS Buffalo, NY

Home | Current Version | Previous Version | Text Only | Print | Product List | Glossary On
Versions: 1 2 3 4 5 6 7 8 9 10 11 12 13 14 15 16 17 18 19 20 21 22 23 24
000
FTUS41 KBUF 152300
TAFART
TAF
KART 152335Z 1600/1624 00000KT P6SM FEW050 SCT080 SCT100
     FM160200 VRB03KT P6SM -SHRA SCT025 OVC070
     FM160600 VRB03KT 6SM -SHRA SCT025 OVC045
     FM160900 00000KT P6SM VCSH SCT025 OVC035
     FM161200 00000KT P6SM SCT100 BKN150
     FM161300 00000KT P6SM SCT100 BKN250
     FM161500 32004KT P6SM BKN250
     FM162100 25011KT P6SM BKN250=

USA.gov is the U.S. government's official web portal to all federal, state and local government web resources and services.